sensor_id;sensor_type;location;lat;lon;timestamp;pressure;altitude;pressure_sealevel;temperature;humidity
34586;BME280;20816;50.950;11.108;2023-05-19T00:01:17;99323.59;;;9.80;87.74
34586;BME280;20816;50.950;11.108;2023-05-19T00:03:52;99321.84;;;9.79;87.56
34586;BME280;20816;50.950;11.108;2023-05-19T00:06:22;99316.63;;;9.73;87.93
34586;BME280;20816;50.950;11.108;2023-05-19T00:08:56;99317.56;;;9.66;88.78
34586;BME280;20816;50.950;11.108;2023-05-19T00:11:24;99309.69;;;9.66;88.60
34586;BME280;20816;50.950;11.108;2023-05-19T00:13:53;99315.81;;;9.65;88.58
34586;BME280;20816;50.950;11.108;2023-05-19T00:16:21;99310.56;;;9.61;89.09
34586;BME280;20816;50.950;11.108;2023-05-19T00:18:48;99316.72;;;9.58;89.91
34586;BME280;20816;50.950;11.108;2023-05-19T00:21:15;99312.38;;;9.57;90.00
34586;BME280;20816;50.950;11.108;2023-05-19T00:23:42;99309.75;;;9.57;89.23
34586;BME280;20816;50.950;11.108;2023-05-19T00:26:09;99308.91;;;9.50;89.70
34586;BME280;20816;50.950;11.108;2023-05-19T00:28:36;99313.28;;;9.53;89.68
34586;BME280;20816;50.950;11.108;2023-05-19T00:31:04;99314.16;;;9.50;90.24
34586;BME280;20816;50.950;11.108;2023-05-19T00:33:31;99317.69;;;9.43;90.79
34586;BME280;20816;50.950;11.108;2023-05-19T00:36:00;99304.56;;;9.43;91.13
34586;BME280;20816;50.950;11.108;2023-05-19T00:38:32;99292.31;;;9.44;90.12
34586;BME280;20816;50.950;11.108;2023-05-19T00:41:00;99304.59;;;9.42;90.38
34586;BME280;20816;50.950;11.108;2023-05-19T00:43:27;99303.72;;;9.40;90.69
34586;BME280;20816;50.950;11.108;2023-05-19T00:45:56;99299.34;;;9.36;90.62
34586;BME280;20816;50.950;11.108;2023-05-19T00:48:26;99302.03;;;9.26;91.42
34586;BME280;20816;50.950;11.108;2023-05-19T00:50:55;99305.53;;;9.32;91.69
34586;BME280;20816;50.950;11.108;2023-05-19T00:53:27;99301.13;;;9.34;91.72
34586;BME280;20816;50.950;11.108;2023-05-19T00:55:54;99304.63;;;9.33;91.23
34586;BME280;20816;50.950;11.108;2023-05-19T00:58:21;99298.56;;;9.29;91.81
34586;BME280;20816;50.950;11.108;2023-05-19T01:00:49;99308.13;;;9.35;91.29
34586;BME280;20816;50.950;11.108;2023-05-19T01:03:16;99302.94;;;9.29;92.09
34586;BME280;20816;50.950;11.108;2023-05-19T01:05:46;99307.28;;;9.28;92.13
34586;BME280;20816;50.950;11.108;2023-05-19T01:08:19;99298.56;;;9.23;92.20
34586;BME280;20816;50.950;11.108;2023-05-19T01:10:45;99302.06;;;9.25;91.75
34586;BME280;20816;50.950;11.108;2023-05-19T01:13:12;99298.59;;;9.21;93.02
34586;BME280;20816;50.950;11.108;2023-05-19T01:15:56;99299.44;;;9.23;92.14
34586;BME280;20816;50.950;11.108;2023-05-19T01:18:31;99304.72;;;9.20;91.49
34586;BME280;20816;50.950;11.108;2023-05-19T01:21:17;99302.94;;;9.19;92.46
34586;BME280;20816;50.950;11.108;2023-05-19T01:24:01;99303.00;;;9.13;92.59
34586;BME280;20816;50.950;11.108;2023-05-19T01:29:46;99299.53;;;9.05;92.38
34586;BME280;20816;50.950;11.108;2023-05-19T01:32:19;99296.94;;;8.97;93.78
34586;BME280;20816;50.950;11.108;2023-05-19T01:34:48;99301.31;;;8.94;94.02
34586;BME280;20816;50.950;11.108;2023-05-19T01:37:16;99295.19;;;8.95;94.21
34586;BME280;20816;50.950;11.108;2023-05-19T01:39:43;99292.59;;;8.92;94.62
34586;BME280;20816;50.950;11.108;2023-05-19T01:42:11;99293.44;;;8.94;94.16
34586;BME280;20816;50.950;11.108;2023-05-19T01:44:38;99298.72;;;8.89;94.20
34586;BME280;20816;50.950;11.108;2023-05-19T01:47:06;99294.34;;;8.93;94.12
34586;BME280;20816;50.950;11.108;2023-05-19T01:49:32;99302.22;;;8.96;94.11
34586;BME280;20816;50.950;11.108;2023-05-19T01:51:59;99292.63;;;8.89;94.60
34586;BME280;20816;50.950;11.108;2023-05-19T01:54:26;99298.72;;;8.85;95.71
34586;BME280;20816;50.950;11.108;2023-05-19T02:02:50;99296.16;;;8.74;96.39
34586;BME280;20816;50.950;11.108;2023-05-19T02:05:44;99299.66;;;8.70;96.52
34586;BME280;20816;50.950;11.108;2023-05-19T02:10:56;99299.66;;;8.62;96.52
34586;BME280;20816;50.950;11.108;2023-05-19T02:13:27;99291.84;;;8.55;97.19
34586;BME280;20816;50.950;11.108;2023-05-19T02:16:01;99294.47;;;8.50;97.39
34586;BME280;20816;50.950;11.108;2023-05-19T02:18:31;99290.13;;;8.48;97.34
34586;BME280;20816;50.950;11.108;2023-05-19T02:20:58;99290.97;;;8.45;97.84
34586;BME280;20816;50.950;11.108;2023-05-19T02:23:25;99285.75;;;8.42;97.48
34586;BME280;20816;50.950;11.108;2023-05-19T02:25:52;99279.66;;;8.35;97.73
34586;BME280;20816;50.950;11.108;2023-05-19T02:28:18;99289.25;;;8.26;98.14
34586;BME280;20816;50.950;11.108;2023-05-19T02:30:45;99284.88;;;8.25;97.98
34586;BME280;20816;50.950;11.108;2023-05-19T02:33:12;99282.28;;;8.12;98.22
34586;BME280;20816;50.950;11.108;2023-05-19T02:35:38;99285.75;;;8.05;98.31
34586;BME280;20816;50.950;11.108;2023-05-19T02:38:05;99278.81;;;7.95;98.34
34586;BME280;20816;50.950;11.108;2023-05-19T02:40:31;99284.91;;;7.90;99.19
34586;BME280;20816;50.950;11.108;2023-05-19T02:42:58;99275.31;;;7.82;99.42
34586;BME280;20816;50.950;11.108;2023-05-19T02:45:25;99280.56;;;7.75;99.78
34586;BME280;20816;50.950;11.108;2023-05-19T02:47:54;99278.81;;;7.68;99.94
34586;BME280;20816;50.950;11.108;2023-05-19T02:50:20;99283.16;;;7.64;100.00
34586;BME280;20816;50.950;11.108;2023-05-19T02:52:47;99277.94;;;7.61;100.00
34586;BME280;20816;50.950;11.108;2023-05-19T02:55:14;99275.31;;;7.50;100.00
34586;BME280;20816;50.950;11.108;2023-05-19T02:57:43;99268.34;;;7.49;100.00
34586;BME280;20816;50.950;11.108;2023-05-19T03:00:10;99269.19;;;7.44;100.00
34586;BME280;20816;50.950;11.108;2023-05-19T03:02:37;99263.06;;;7.37;100.00
34586;BME280;20816;50.950;11.108;2023-05-19T03:05:05;99282.22;;;7.27;100.00
34586;BME280;20816;50.950;11.108;2023-05-19T03:07:33;99272.66;;;7.34;100.00
34586;BME280;20816;50.950;11.108;2023-05-19T03:10:00;99276.97;;;7.21;100.00
34586;BME280;20816;50.950;11.108;2023-05-19T03:12:29;99273.50;;;7.19;100.00
34586;BME280;20816;50.950;11.108;2023-05-19T03:14:56;99274.34;;;7.15;100.00
34586;BME280;20816;50.950;11.108;2023-05-19T03:17:23;99273.47;;;7.10;100.00
34586;BME280;20816;50.950;11.108;2023-05-19T03:19:50;99278.69;;;7.10;100.00
34586;BME280;20816;50.950;11.108;2023-05-19T03:22:17;99278.69;;;7.03;100.00
34586;BME280;20816;50.950;11.108;2023-05-19T03:24:46;99272.59;;;7.01;100.00
34586;BME280;20816;50.950;11.108;2023-05-19T03:27:15;99273.44;;;7.00;100.00
34586;BME280;20816;50.950;11.108;2023-05-19T03:29:42;99278.69;;;7.00;100.00
34586;BME280;20816;50.950;11.108;2023-05-19T03:32:08;99279.53;;;6.96;100.00
34586;BME280;20816;50.950;11.108;2023-05-19T03:34:35;99276.91;;;6.99;100.00
34586;BME280;20816;50.950;11.108;2023-05-19T03:37:02;99279.53;;;7.04;100.00
34586;BME280;20816;50.950;11.108;2023-05-19T03:39:28;99276.94;;;7.02;100.00
34586;BME280;20816;50.950;11.108;2023-05-19T03:41:55;99278.69;;;7.03;100.00
34586;BME280;20816;50.950;11.108;2023-05-19T03:44:22;99286.50;;;6.94;100.00
34586;BME280;20816;50.950;11.108;2023-05-19T03:46:48;99280.34;;;6.91;100.00
34586;BME280;20816;50.950;11.108;2023-05-19T03:49:15;99280.34;;;6.88;100.00
34586;BME280;20816;50.950;11.108;2023-05-19T03:51:42;99277.75;;;6.86;100.00
34586;BME280;20816;50.950;11.108;2023-05-19T03:54:09;99285.56;;;6.83;100.00
34586;BME280;20816;50.950;11.108;2023-05-19T03:56:38;99281.22;;;6.90;100.00
34586;BME280;20816;50.950;11.108;2023-05-19T03:59:05;99276.91;;;6.99;100.00
34586;BME280;20816;50.950;11.108;2023-05-19T04:01:32;99286.50;;;7.02;100.00
34586;BME280;20816;50.950;11.108;2023-05-19T04:03:59;99280.44;;;7.11;100.00
34586;BME280;20816;50.950;11.108;2023-05-19T04:06:26;99282.22;;;7.18;100.00
34586;BME280;20816;50.950;11.108;2023-05-19T04:08:52;99282.22;;;7.18;100.00
34586;BME280;20816;50.950;11.108;2023-05-19T04:11:19;99281.31;;;7.10;100.00
34586;BME280;20816;50.950;11.108;2023-05-19T04:13:46;99283.94;;;7.10;100.00
34586;BME280;20816;50.950;11.108;2023-05-19T04:16:13;99278.69;;;7.10;100.00
34586;BME280;20816;50.950;11.108;2023-05-19T04:18:40;99276.09;;;7.13;100.00
34586;BME280;20816;50.950;11.108;2023-05-19T04:21:07;99282.19;;;7.15;100.00
34586;BME280;20816;50.950;11.108;2023-05-19T04:23:34;99274.38;;;7.21;100.00
34586;BME280;20816;50.950;11.108;2023-05-19T04:26:01;99285.72;;;7.26;100.00
34586;BME280;20816;50.950;11.108;2023-05-19T04:28:29;99284.00;;;7.34;100.00
34586;BME280;20816;50.950;11.108;2023-05-19T04:30:55;99284.00;;;7.34;100.00
34586;BME280;20816;50.950;11.108;2023-05-19T04:33:24;99285.75;;;7.41;100.00
34586;BME280;20816;50.950;11.108;2023-05-19T04:35:50;99280.53;;;7.50;100.00
34586;BME280;20816;50.950;11.108;2023-05-19T04:38:17;99283.16;;;7.58;100.00
34586;BME280;20816;50.950;11.108;2023-05-19T04:40:45;99285.78;;;7.72;100.00
34586;BME280;20816;50.950;11.108;2023-05-19T04:43:15;99291.03;;;7.84;100.00
34586;BME280;20816;50.950;11.108;2023-05-19T04:45:43;99291.00;;;7.96;100.00
34586;BME280;20816;50.950;11.108;2023-05-19T04:48:10;99291.88;;;8.06;100.00
34586;BME280;20816;50.950;11.108;2023-05-19T04:50:37;99289.28;;;8.17;100.00
34586;BME280;20816;50.950;11.108;2023-05-19T04:53:08;99292.75;;;8.31;100.00
34586;BME280;20816;50.950;11.108;2023-05-19T04:55:35;99293.59;;;8.45;100.00
34586;BME280;20816;50.950;11.108;2023-05-19T04:58:02;99294.44;;;8.59;100.00
34586;BME280;20816;50.950;11.108;2023-05-19T05:00:29;99290.91;;;8.71;100.00
34586;BME280;20816;50.950;11.108;2023-05-19T05:02:57;99290.00;;;8.84;100.00
34586;BME280;20816;50.950;11.108;2023-05-19T05:05:24;99288.22;;;8.94;100.00
34586;BME280;20816;50.950;11.108;2023-05-19T05:07:51;99289.03;;;9.08;100.00
34586;BME280;20816;50.950;11.108;2023-05-19T05:10:19;99284.59;;;9.18;99.95
34586;BME280;20816;50.950;11.108;2023-05-19T05:12:47;99284.56;;;9.30;100.00
34586;BME280;20816;50.950;11.108;2023-05-19T05:15:14;99282.72;;;9.46;99.61
34586;BME280;20816;50.950;11.108;2023-05-19T05:17:41;99283.47;;;9.60;99.39
34586;BME280;20816;50.950;11.108;2023-05-19T05:20:09;99288.63;;;9.72;97.62
34586;BME280;20816;50.950;11.108;2023-05-19T05:22:38;99283.34;;;9.78;96.58
34586;BME280;20816;50.950;11.108;2023-05-19T05:25:06;99276.22;;;9.96;97.32
34586;BME280;20816;50.950;11.108;2023-05-19T05:27:33;99277.81;;;10.12;96.45
34586;BME280;20816;50.950;11.108;2023-05-19T05:29:59;99282.97;;;10.21;95.17
34586;BME280;20816;50.950;11.108;2023-05-19T05:32:26;99286.44;;;10.29;94.28
34586;BME280;20816;50.950;11.108;2023-05-19T05:34:53;99293.34;;;10.43;93.42
34586;BME280;20816;50.950;11.108;2023-05-19T05:37:20;99287.88;;;10.58;93.31
34586;BME280;20816;50.950;11.108;2023-05-19T05:39:46;99284.25;;;10.71;92.68
34586;BME280;20816;50.950;11.108;2023-05-19T05:42:13;99296.38;;;10.84;92.47
34586;BME280;20816;50.950;11.108;2023-05-19T05:44:40;99288.31;;;11.00;91.82
34586;BME280;20816;50.950;11.108;2023-05-19T05:47:07;99296.75;;;11.23;91.42
34586;BME280;20816;50.950;11.108;2023-05-19T05:49:34;99292.22;;;11.34;88.44
34586;BME280;20816;50.950;11.108;2023-05-19T05:52:05;99295.50;;;11.51;87.79
34586;BME280;20816;50.950;11.108;2023-05-19T05:54:33;99293.31;;;11.78;86.00
34586;BME280;20816;50.950;11.108;2023-05-19T05:57:00;99298.13;;;12.09;83.88
34586;BME280;20816;50.950;11.108;2023-05-19T05:59:28;99299.44;;;12.34;81.09
34586;BME280;20816;50.950;11.108;2023-05-19T06:01:54;99297.00;;;12.73;79.18
34586;BME280;20816;50.950;11.108;2023-05-19T06:04:21;99288.81;;;13.30;77.28
34586;BME280;20816;50.950;11.108;2023-05-19T06:06:48;99292.06;;;13.80;74.76
34586;BME280;20816;50.950;11.108;2023-05-19T06:09:14;99291.84;;;14.24;73.58
34586;BME280;20816;50.950;11.108;2023-05-19T06:11:41;99300.53;;;14.29;71.14
34586;BME280;20816;50.950;11.108;2023-05-19T06:14:08;99304.72;;;14.72;71.91
34586;BME280;20816;50.950;11.108;2023-05-19T06:16:35;99296.09;;;14.64;70.41
34586;BME280;20816;50.950;11.108;2023-05-19T06:19:02;99290.91;;;14.61;70.05
34586;BME280;20816;50.950;11.108;2023-05-19T06:21:29;99294.75;;;14.14;71.49
34586;BME280;20816;50.950;11.108;2023-05-19T06:23:56;99295.72;;;14.11;72.13
34586;BME280;20816;50.950;11.108;2023-05-19T06:26:22;99295.63;;;13.79;72.10
34586;BME280;20816;50.950;11.108;2023-05-19T06:28:49;99293.53;;;13.54;74.64
34586;BME280;20816;50.950;11.108;2023-05-19T06:31:15;99295.41;;;13.49;74.59
34586;BME280;20816;50.950;11.108;2023-05-19T06:33:42;99286.00;;;13.74;73.33
34586;BME280;20816;50.950;11.108;2023-05-19T06:36:09;99293.16;;;13.71;72.27
34586;BME280;20816;50.950;11.108;2023-05-19T06:38:36;99287.41;;;13.54;72.51
34586;BME280;20816;50.950;11.108;2023-05-19T06:41:03;99288.56;;;13.40;74.00
34586;BME280;20816;50.950;11.108;2023-05-19T06:43:29;99284.09;;;13.42;73.30
34586;BME280;20816;50.950;11.108;2023-05-19T06:45:56;99284.03;;;13.47;73.60
34586;BME280;20816;50.950;11.108;2023-05-19T06:48:23;99290.41;;;13.37;73.73
34586;BME280;20816;50.950;11.108;2023-05-19T06:50:49;99286.31;;;13.62;74.27
34586;BME280;20816;50.950;11.108;2023-05-19T06:53:18;99290.28;;;13.80;73.42
34586;BME280;20816;50.950;11.108;2023-05-19T06:55:45;99287.66;;;13.80;74.07
34586;BME280;20816;50.950;11.108;2023-05-19T06:58:24;99288.78;;;14.40;72.12
34586;BME280;20816;50.950;11.108;2023-05-19T07:00:52;99278.09;;;14.44;71.13
34586;BME280;20816;50.950;11.108;2023-05-19T07:03:18;99279.28;;;14.98;69.52
34586;BME280;20816;50.950;11.108;2023-05-19T07:05:45;99287.44;;;14.92;68.60
34586;BME280;20816;50.950;11.108;2023-05-19T07:08:12;99282.06;;;15.24;69.71
34586;BME280;20816;50.950;11.108;2023-05-19T07:10:39;99272.34;;;15.53;69.61
34586;BME280;20816;50.950;11.108;2023-05-19T07:13:06;99285.81;;;15.45;70.51
34586;BME280;20816;50.950;11.108;2023-05-19T07:15:32;99285.63;;;15.23;70.33
34586;BME280;20816;50.950;11.108;2023-05-19T07:17:59;99293.47;;;15.26;70.91
34586;BME280;20816;50.950;11.108;2023-05-19T07:20:26;99283.63;;;15.31;69.95
34586;BME280;20816;50.950;11.108;2023-05-19T07:22:53;99280.22;;;15.26;69.46
34586;BME280;20816;50.950;11.108;2023-05-19T07:25:19;99281.06;;;14.99;70.67
34586;BME280;20816;50.950;11.108;2023-05-19T07:27:46;99284.41;;;15.04;70.79
34586;BME280;20816;50.950;11.108;2023-05-19T07:30:13;99277.91;;;14.84;71.19
34586;BME280;20816;50.950;11.108;2023-05-19T07:32:39;99276.06;;;14.55;72.10
34586;BME280;20816;50.950;11.108;2023-05-19T07:35:06;99283.75;;;14.96;71.13
34586;BME280;20816;50.950;11.108;2023-05-19T07:37:33;99276.56;;;15.30;70.68
34586;BME280;20816;50.950;11.108;2023-05-19T07:40:00;99278.63;;;15.50;70.00
34586;BME280;20816;50.950;11.108;2023-05-19T07:42:26;99284.41;;;15.63;69.92
34586;BME280;20816;50.950;11.108;2023-05-19T07:44:53;99277.84;;;16.03;68.04
34586;BME280;20816;50.950;11.108;2023-05-19T07:47:20;99273.47;;;16.53;66.56
34586;BME280;20816;50.950;11.108;2023-05-19T07:49:46;99268.84;;;17.31;65.46
34586;BME280;20816;50.950;11.108;2023-05-19T07:52:17;99268.19;;;17.93;63.62
34586;BME280;20816;50.950;11.108;2023-05-19T07:54:44;99264.28;;;18.02;63.23
34586;BME280;20816;50.950;11.108;2023-05-19T07:57:11;99261.44;;;18.27;62.79
34586;BME280;20816;50.950;11.108;2023-05-19T07:59:39;99265.38;;;18.39;60.92
34586;BME280;20816;50.950;11.108;2023-05-19T08:02:06;99267.44;;;18.53;61.23
34586;BME280;20816;50.950;11.108;2023-05-19T08:04:33;99263.81;;;18.75;59.22
34586;BME280;20816;50.950;11.108;2023-05-19T08:07:00;99260.69;;;18.03;61.17
34586;BME280;20816;50.950;11.108;2023-05-19T08:09:26;99262.84;;;18.36;61.16
34586;BME280;20816;50.950;11.108;2023-05-19T08:11:53;99256.75;;;18.74;60.50
34586;BME280;20816;50.950;11.108;2023-05-19T08:14:20;99253.56;;;18.66;59.70
34586;BME280;20816;50.950;11.108;2023-05-19T08:16:48;99240.47;;;18.19;60.59
34586;BME280;20816;50.950;11.108;2023-05-19T08:19:15;99247.66;;;18.17;60.75
34586;BME280;20816;50.950;11.108;2023-05-19T08:21:42;99248.72;;;18.13;62.32
34586;BME280;20816;50.950;11.108;2023-05-19T08:24:10;99247.19;;;18.48;60.79
34586;BME280;20816;50.950;11.108;2023-05-19T08:26:37;99244.34;;;18.53;60.38
34586;BME280;20816;50.950;11.108;2023-05-19T08:29:03;99237.44;;;18.69;61.49
34586;BME280;20816;50.950;11.108;2023-05-19T08:31:30;99243.00;;;18.63;59.50
34586;BME280;20816;50.950;11.108;2023-05-19T08:33:57;99242.81;;;17.85;61.20
34586;BME280;20816;50.950;11.108;2023-05-19T08:36:24;99231.75;;;18.16;60.48
34586;BME280;20816;50.950;11.108;2023-05-19T08:38:51;99233.41;;;17.98;61.34
34586;BME280;20816;50.950;11.108;2023-05-19T08:41:18;99229.94;;;17.96;61.17
34586;BME280;20816;50.950;11.108;2023-05-19T08:43:45;99229.16;;;18.14;62.31
34586;BME280;20816;50.950;11.108;2023-05-19T08:46:12;99223.84;;;18.14;60.86
34586;BME280;20816;50.950;11.108;2023-05-19T08:48:43;99210.66;;;18.52;60.50
34586;BME280;20816;50.950;11.108;2023-05-19T08:51:21;99214.50;;;17.84;61.53
34586;BME280;20816;50.950;11.108;2023-05-19T08:53:52;99210.69;;;17.89;60.29
34586;BME280;20816;50.950;11.108;2023-05-19T08:56:21;99215.44;;;18.03;60.03
34586;BME280;20816;50.950;11.108;2023-05-19T08:58:50;99202.00;;;17.86;61.76
34586;BME280;20816;50.950;11.108;2023-05-19T09:01:18;99213.59;;;17.40;62.02
34586;BME280;20816;50.950;11.108;2023-05-19T09:03:46;99215.78;;;16.83;63.52
34586;BME280;20816;50.950;11.108;2023-05-19T09:06:15;99220.69;;;16.45;63.53
34586;BME280;20816;50.950;11.108;2023-05-19T09:08:42;99211.28;;;16.35;64.21
34586;BME280;20816;50.950;11.108;2023-05-19T09:11:09;99214.78;;;16.37;64.90
34586;BME280;20816;50.950;11.108;2023-05-19T09:13:36;99213.47;;;16.24;63.92
34586;BME280;20816;50.950;11.108;2023-05-19T09:16:03;99208.81;;;16.56;63.66
34586;BME280;20816;50.950;11.108;2023-05-19T09:18:30;99205.72;;;16.91;61.88
34586;BME280;20816;50.950;11.108;2023-05-19T09:21:00;99194.88;;;16.97;62.01
34586;BME280;20816;50.950;11.108;2023-05-19T09:23:32;99192.66;;;17.08;63.20
34586;BME280;20816;50.950;11.108;2023-05-19T09:26:03;99195.16;;;17.13;61.78
34586;BME280;20816;50.950;11.108;2023-05-19T09:28:34;99196.09;;;16.89;63.29
34586;BME280;20816;50.950;11.108;2023-05-19T09:31:08;99186.03;;;17.86;61.38
34586;BME280;20816;50.950;11.108;2023-05-19T09:33:37;99195.19;;;18.01;61.27
34586;BME280;20816;50.950;11.108;2023-05-19T09:36:05;99192.72;;;18.37;59.45
34586;BME280;20816;50.950;11.108;2023-05-19T09:38:34;99182.06;;;17.96;60.79
34586;BME280;20816;50.950;11.108;2023-05-19T09:41:04;99189.16;;;18.16;60.11
34586;BME280;20816;50.950;11.108;2023-05-19T09:43:32;99194.84;;;18.08;61.10
34586;BME280;20816;50.950;11.108;2023-05-19T09:46:07;99194.88;;;18.47;60.53
34586;BME280;20816;50.950;11.108;2023-05-19T09:48:36;99189.75;;;18.84;58.87
34586;BME280;20816;50.950;11.108;2023-05-19T09:51:04;99189.97;;;18.98;57.90
34586;BME280;20816;50.950;11.108;2023-05-19T09:53:33;99197.53;;;19.26;57.30
34586;BME280;20816;50.950;11.108;2023-05-19T09:56:01;99195.31;;;19.17;56.09
34586;BME280;20816;50.950;11.108;2023-05-19T09:58:33;99186.34;;;19.37;56.48
34586;BME280;20816;50.950;11.108;2023-05-19T10:01:02;99186.53;;;19.87;56.26
34586;BME280;20816;50.950;11.108;2023-05-19T10:03:29;99180.31;;;19.33;56.68
34586;BME280;20816;50.950;11.108;2023-05-19T10:06:00;99186.22;;;18.83;57.46
34586;BME280;20816;50.950;11.108;2023-05-19T10:08:27;99180.22;;;18.78;58.25
34586;BME280;20816;50.950;11.108;2023-05-19T10:10:57;99179.53;;;17.93;59.21
34586;BME280;20816;50.950;11.108;2023-05-19T10:13:24;99168.94;;;17.71;60.64
34586;BME280;20816;50.950;11.108;2023-05-19T10:15:51;99173.03;;;18.00;60.64
34586;BME280;20816;50.950;11.108;2023-05-19T10:18:21;99165.50;;;17.68;60.59
34586;BME280;20816;50.950;11.108;2023-05-19T10:20:51;99164.16;;;17.35;60.09
34586;BME280;20816;50.950;11.108;2023-05-19T10:23:18;99166.56;;;17.63;60.33
34586;BME280;20816;50.950;11.108;2023-05-19T10:25:45;99165.84;;;18.02;59.12
34586;BME280;20816;50.950;11.108;2023-05-19T10:28:15;99161.59;;;18.97;57.97
34586;BME280;20816;50.950;11.108;2023-05-19T10:30:45;99155.41;;;19.15;56.38
34586;BME280;20816;50.950;11.108;2023-05-19T10:33:15;99165.44;;;19.65;54.81
34586;BME280;20816;50.950;11.108;2023-05-19T10:38:39;99155.81;;;19.97;54.75
34586;BME280;20816;50.950;11.108;2023-05-19T10:41:15;99147.31;;;18.79;55.50
34586;BME280;20816;50.950;11.108;2023-05-19T10:43:55;99158.78;;;18.42;55.84
34586;BME280;20816;50.950;11.108;2023-05-19T10:46:28;99147.50;;;18.16;57.44
34586;BME280;20816;50.950;11.108;2023-05-19T10:48:55;99141.72;;;18.66;57.91
34586;BME280;20816;50.950;11.108;2023-05-19T10:51:32;99144.22;;;19.26;57.49
34586;BME280;20816;50.950;11.108;2023-05-19T10:54:07;99143.25;;;19.65;56.07
34586;BME280;20816;50.950;11.108;2023-05-19T10:56:38;99144.88;;;19.84;55.69
34586;BME280;20816;50.950;11.108;2023-05-19T10:59:31;99138.03;;;19.62;55.18
34586;BME280;20816;50.950;11.108;2023-05-19T11:02:03;99138.34;;;19.37;55.81
34586;BME280;20816;50.950;11.108;2023-05-19T11:04:47;99137.63;;;20.56;54.38
34586;BME280;20816;50.950;11.108;2023-05-19T11:07:18;99129.38;;;20.76;53.44
34586;BME280;20816;50.950;11.108;2023-05-19T11:09:52;99124.06;;;21.08;53.50
34586;BME280;20816;50.950;11.108;2023-05-19T11:12:20;99124.66;;;21.13;53.22
34586;BME280;20816;50.950;11.108;2023-05-19T11:14:54;99126.81;;;20.90;52.17
34586;BME280;20816;50.950;11.108;2023-05-19T11:17:23;99129.66;;;20.87;52.73
34586;BME280;20816;50.950;11.108;2023-05-19T11:19:55;99134.22;;;20.85;52.28
34586;BME280;20816;50.950;11.108;2023-05-19T11:22:23;99122.53;;;21.35;52.82
34586;BME280;20816;50.950;11.108;2023-05-19T11:24:53;99115.56;;;21.63;50.69
34586;BME280;20816;50.950;11.108;2023-05-19T11:27:31;99111.41;;;21.73;50.16
34586;BME280;20816;50.950;11.108;2023-05-19T11:29:59;99116.66;;;21.29;49.50
34586;BME280;20816;50.950;11.108;2023-05-19T11:32:29;99110.09;;;21.03;50.85
34586;BME280;20816;50.950;11.108;2023-05-19T11:34:56;99103.88;;;21.18;50.92
34586;BME280;20816;50.950;11.108;2023-05-19T11:37:23;99103.72;;;21.21;51.23
34586;BME280;20816;50.950;11.108;2023-05-19T11:39:51;99103.47;;;21.10;50.81
34586;BME280;20816;50.950;11.108;2023-05-19T11:42:18;99097.06;;;20.96;50.48
34586;BME280;20816;50.950;11.108;2023-05-19T11:44:45;99089.72;;;21.47;49.79
34586;BME280;20816;50.950;11.108;2023-05-19T11:47:13;99099.84;;;20.79;48.35
34586;BME280;20816;50.950;11.108;2023-05-19T11:49:44;99107.19;;;20.25;45.67
34586;BME280;20816;50.950;11.108;2023-05-19T11:52:11;99102.75;;;20.41;47.35
34586;BME280;20816;50.950;11.108;2023-05-19T11:54:38;99102.66;;;20.76;46.58
34586;BME280;20816;50.950;11.108;2023-05-19T11:57:08;99100.03;;;20.59;48.46
34586;BME280;20816;50.950;11.108;2023-05-19T11:59:39;99102.41;;;20.96;47.56
34586;BME280;20816;50.950;11.108;2023-05-19T12:02:21;99107.66;;;20.82;48.87
34586;BME280;20816;50.950;11.108;2023-05-19T12:04:50;99109.34;;;20.52;49.30
34586;BME280;20816;50.950;11.108;2023-05-19T12:07:20;99121.50;;;19.90;50.27
34586;BME280;20816;50.950;11.108;2023-05-19T12:09:49;99116.03;;;19.39;52.23
34586;BME280;20816;50.950;11.108;2023-05-19T12:12:18;99125.34;;;19.67;52.83
34586;BME280;20816;50.950;11.108;2023-05-19T12:14:46;99119.09;;;19.49;52.88
34586;BME280;20816;50.950;11.108;2023-05-19T12:17:18;99116.69;;;19.62;53.70
34586;BME280;20816;50.950;11.108;2023-05-19T12:19:48;99111.31;;;19.80;52.31
34586;BME280;20816;50.950;11.108;2023-05-19T12:22:16;99110.59;;;19.77;53.89
34586;BME280;20816;50.950;11.108;2023-05-19T12:24:43;99105.56;;;19.71;51.85
34586;BME280;20816;50.950;11.108;2023-05-19T12:27:19;99103.13;;;20.01;52.44
34586;BME280;20816;50.950;11.108;2023-05-19T12:29:50;99107.44;;;19.86;50.49
34586;BME280;20816;50.950;11.108;2023-05-19T12:32:21;99101.56;;;19.62;50.46
34586;BME280;20816;50.950;11.108;2023-05-19T12:34:48;99099.31;;;19.36;50.32
34586;BME280;20816;50.950;11.108;2023-05-19T12:37:15;99092.44;;;19.49;51.66
34586;BME280;20816;50.950;11.108;2023-05-19T12:39:42;99098.94;;;19.79;51.15
34586;BME280;20816;50.950;11.108;2023-05-19T12:42:10;99095.09;;;19.49;50.66
34586;BME280;20816;50.950;11.108;2023-05-19T12:44:44;99090.44;;;19.71;51.42
34586;BME280;20816;50.950;11.108;2023-05-19T12:47:16;99090.81;;;19.27;51.46
34586;BME280;20816;50.950;11.108;2023-05-19T12:52:25;99102.75;;;19.38;52.19
34586;BME280;20816;50.950;11.108;2023-05-19T12:55:06;99097.50;;;19.72;51.89
34586;BME280;20816;50.950;11.108;2023-05-19T12:57:34;99093.72;;;19.94;52.48
34586;BME280;20816;50.950;11.108;2023-05-19T13:00:02;99079.25;;;20.15;50.65
34586;BME280;20816;50.950;11.108;2023-05-19T13:02:33;99083.44;;;19.86;48.25
34586;BME280;20816;50.950;11.108;2023-05-19T13:05:02;99092.69;;;19.79;49.47
34586;BME280;20816;50.950;11.108;2023-05-19T13:07:30;99087.28;;;19.98;49.82
34586;BME280;20816;50.950;11.108;2023-05-19T13:09:56;99087.44;;;19.60;49.48
34586;BME280;20816;50.950;11.108;2023-05-19T13:12:24;99096.53;;;19.56;50.44
34586;BME280;20816;50.950;11.108;2023-05-19T13:14:51;99090.28;;;19.74;51.10
34586;BME280;20816;50.950;11.108;2023-05-19T13:17:21;99092.09;;;19.56;51.26